• Join FlightAware (Why Join?)
  • Login
  • US Flag 
03:40PM EDT


 

Airport Tracker/Info


-or-


 

Live Flight TrackerFlight Track Log ✈ DAL3860 ✈ 04-May-2013 ✈ KGRR - KDTW

Flight Track Log - Related Links

Times and Time Zones

All times are in EDT time to prevent confusion due to time zone crossing. See the DAL3860 flight status page for this flight to view local times or setup timezone preferences in your user account.

Time Position Orientation Groundspeed Altitude Reporting Facility
EDT Latitude Longitude Course Direction KTS MPH feet Rate Location/Type
12:03PM 42.8850 -85.4744 61° Northeast 150 173 2,700  Level Chicago Center
12:04PM 42.9072 -85.3856 71° East 201 231 5,500 2,580 Climbing Chicago Center
12:05PM 42.8333 -85.3392 90° East  Level FlightAware Approximate
12:05PM 42.9331 -85.2942 69° East 246 283 8,000  Level Chicago Center
12:06PM 42.8631 -85.2561 62° Northeast  Level FlightAware Approximate
12:06PM 42.9603 -85.1981 69° East 270 311 10,900  Level Chicago Center
12:07PM 42.8949 -85.1735 62° Northeast  Level FlightAware Approximate
12:07PM 42.9911 -85.0958 68° East 288 331 13,000  Level Chicago Center
12:08PM 42.9275 -85.0915 60° Northeast  Level FlightAware Approximate
12:08PM 43.0208 -84.9900 69° East 298 343 13,000  Level Chicago Center
12:09PM 42.9669 -84.9994 61° Northeast  Level FlightAware Approximate
12:09PM 43.0197 -84.8828 91° East 281 323 13,000  Level Chicago Center
12:11PM 43.0161 -84.7783 93° East 277 319 13,000 -540 Level Chicago Center
12:12PM 43.0119 -84.6500 92° East 282 325 12,000 -540 Descending Chicago Center
12:13PM 43.0086 -84.5439 92° East 281 323 12,000  Level Chicago Center
12:14PM 43.0058 -84.4392 92° East 277 319 12,000  Level Chicago Center
12:15PM 43.0019 -84.3328 93° East 279 321 12,000  Level Chicago Center
12:16PM 42.9978 -84.2278 93° East 278 320 12,000  Level Chicago Center
12:16PM 42.9928 -84.1542 95° East 280 322 12,000  Level Cleveland Center
12:17PM 42.9900 -84.1031 94° East 273 314 12,000  Level Cleveland Center
12:17PM 42.9792 -84.0511 106° East 280 322 12,000  Level Cleveland Center
12:18PM 42.9594 -84.0103 123° Southeast 267 307 12,000  Level Cleveland Center
12:18PM 42.9361 -83.9581 121° Southeast 276 318 12,000  Level Cleveland Center
12:19PM 42.9183 -83.9231 125° Southeast 262 302 12,000  Level Cleveland Center
12:19PM 42.8947 -83.8708 122° Southeast 274 315 12,000  Level Cleveland Center
12:20PM 42.8811 -83.8361 118° Southeast 267 307 12,000  Level Cleveland Center
12:20PM 42.8597 -83.7867 121° Southeast 273 314 12,000  Level Cleveland Center
12:21PM 42.8400 -83.7461 124° Southeast 272 313 12,000 -660 Level Cleveland Center
12:21PM 42.7992 -83.7131 149° Southeast 284 327 11,300 -1,140 Descending Cleveland Center
12:22PM 42.7725 -83.6975 157° South 272 313 10,900 -1,020 Descending Cleveland Center
12:22PM 42.7292 -83.6728 157° South 274 315 10,300 -840 Descending Cleveland Center
12:23PM 42.7169 -83.6664 159° South 272 313 10,100 -1,140 Descending Cleveland Center
12:23PM 42.6728 -83.6022 133° Southeast 259 298 9,200 -1,200 Descending Cleveland Center
12:24PM 42.6567 -83.5817 137° Southeast 264 304 8,900 -1,020 Descending Cleveland Center
12:24PM 42.6225 -83.5292 131° Southeast 255 293 8,200 -1,020 Descending Cleveland Center
12:25PM 42.6064 -83.5114 141° Southeast 259 298 7,900 -1,020 Descending Cleveland Center
12:26PM 42.5600 -83.4444 133° Southeast 254 292 6,900 -1,020 Descending Cleveland Center
12:26PM 42.5278 -83.4008 135° Southeast 240 276 6,200 -720 Descending Cleveland Center
12:27PM 42.4683 -83.3558 151° Southeast 233 268 5,700 -840 Descending Cleveland Center
12:28PM 42.4022 -83.3389 169° South 239 275 4,600 -1,200 Descending Cleveland Center
12:29PM 42.3442 -83.3278 172° South 227 261 3,400 -1,200 Descending Cleveland Center
12:30PM 42.2900 -83.3228 176° South 170 196 2,300 -1,080 Descending Cleveland Center
12:31PM 42.2519 -83.3492 207° Southwest 141 162 1,300 -1,020 Descending Cleveland Center